Time;durP1;ratioP1;P1;durP2;ratioP2;P2;SDS_P1;SDS_P2;PMS_P1;PMS_P2;Temp;Humidity;BMP_temperature;BMP_pressure;BME280_temperature;BME280_humidity;BME280_pressure;Samples;Min_cycle;Max_cycle;Signal;HPM_P1;HPM_P2
2022/04/28 00:01:56;;;;;;;7.75;3.55;;;8.70;65.10;;;;;;5116117;28;20019;-46
2022/04/28 00:04:22;;;;;;;9.13;3.72;;;8.70;65.20;;;;;;5116148;28;20031;-46
2022/04/28 00:06:47;;;;;;;7.85;3.22;;;8.70;65.30;;;;;;5116047;28;20019;-45
2022/04/28 00:09:13;;;;;;;6.13;3.17;;;8.60;65.40;;;;;;5116118;28;20110;-46
2022/04/28 00:11:39;;;;;;;8.00;3.35;;;8.70;65.50;;;;;;5115178;28;20028;-46
2022/04/28 00:14:07;;;;;;;7.65;3.50;;;8.60;65.60;;;;;;5115946;28;20042;-46
2022/04/28 00:16:35;;;;;;;8.82;3.97;;;8.60;65.60;;;;;;5114636;28;20027;-46
2022/04/28 00:19:01;;;;;;;9.50;3.75;;;8.60;65.70;;;;;;5115962;28;20024;-46
2022/04/28 00:21:27;;;;;;;9.63;3.50;;;8.50;65.80;;;;;;5115692;28;20016;-46
2022/04/28 00:23:52;;;;;;;7.40;3.47;;;8.50;65.90;;;;;;5116064;28;20031;-46
2022/04/28 00:26:18;;;;;;;8.73;3.65;;;8.50;66.10;;;;;;5115849;28;20430;-46
2022/04/28 00:28:43;;;;;;;7.75;3.67;;;8.50;66.10;;;;;;5115583;28;20027;-46
2022/04/28 00:31:09;;;;;;;7.28;3.45;;;8.50;66.10;;;;;;5115582;28;20011;-46
2022/04/28 00:33:34;;;;;;;6.53;3.47;;;8.50;66.20;;;;;;5115675;28;20058;-46
2022/04/28 00:36:00;;;;;;;7.78;3.70;;;8.40;66.20;;;;;;5115581;28;20016;-45
2022/04/28 00:38:25;;;;;;;12.05;3.97;;;8.40;66.30;;;;;;5115768;28;20080;-46
2022/04/28 00:40:51;;;;;;;7.80;3.38;;;8.40;66.40;;;;;;5115574;28;20095;-46
2022/04/28 00:43:23;;;;;;;7.90;3.50;;;8.40;66.50;;;;;;5115384;28;20019;-46
2022/04/28 00:45:50;;;;;;;8.02;3.55;;;8.40;66.60;;;;;;5115619;28;20019;-45
2022/04/28 00:51:04;;;;;;;7.40;4.07;;;8.40;66.80;;;;;;5115246;28;20502;-46
2022/04/28 00:53:32;;;;;;;6.50;3.70;;;8.30;66.60;;;;;;5115494;28;20016;-46
2022/04/28 00:55:59;;;;;;;6.75;3.53;;;8.30;66.70;;;;;;5115029;28;20039;-46
2022/04/28 00:58:26;;;;;;;9.23;3.65;;;8.40;66.80;;;;;;5113918;28;20022;-46
2022/04/28 01:00:53;;;;;;;4.70;2.97;;;8.40;66.70;;;;;;5114901;28;20036;-46
2022/04/28 01:03:20;;;;;;;6.60;3.50;;;8.40;66.70;;;;;;5115279;28;20543;-45
2022/04/28 01:05:46;;;;;;;7.60;3.58;;;8.40;66.80;;;;;;5114886;28;20015;-47
2022/04/28 01:08:12;;;;;;;5.07;3.30;;;8.40;66.80;;;;;;5114478;28;20015;-46
2022/04/28 01:10:37;;;;;;;7.55;3.80;;;8.40;66.90;;;;;;5114458;28;20030;-46
2022/04/28 01:13:04;;;;;;;7.60;3.10;;;8.40;66.90;;;;;;5114372;28;20049;-45
2022/04/28 01:15:30;;;;;;;9.63;3.60;;;8.40;66.90;;;;;;5114547;28;20413;-45
2022/04/28 01:17:55;;;;;;;9.40;3.58;;;8.40;66.90;;;;;;5114279;28;20051;-46
2022/04/28 01:20:21;;;;;;;7.03;3.53;;;8.40;66.90;;;;;;5114463;28;20387;-45
2022/04/28 01:22:46;;;;;;;6.60;3.58;;;8.40;66.90;;;;;;5112307;28;20467;-46
2022/04/28 01:25:12;;;;;;;7.15;4.00;;;8.40;66.90;;;;;;5114292;28;20394;-46
2022/04/28 01:27:39;;;;;;;6.40;3.70;;;8.30;66.90;;;;;;5114092;28;20016;-46
2022/04/28 01:30:11;;;;;;;6.07;3.58;;;8.30;67.00;;;;;;5114051;28;20020;-46
2022/04/28 01:32:37;;;;;;;8.90;3.53;;;8.30;67.10;;;;;;5113898;28;20028;-46
2022/04/28 01:35:03;;;;;;;7.25;3.75;;;8.40;67.40;;;;;;5113996;28;20023;-46
2022/04/28 01:37:28;;;;;;;10.68;3.67;;;8.30;67.20;;;;;;5113921;28;20031;-46
2022/04/28 01:39:56;;;;;;;8.32;3.85;;;8.30;67.20;;;;;;5113855;28;20415;-46
2022/04/28 01:42:23;;;;;;;7.50;3.40;;;8.30;67.20;;;;;;5114108;28;20383;-46
2022/04/28 01:44:49;;;;;;;10.20;4.25;;;8.30;67.40;;;;;;5114246;28;20023;-46
2022/04/28 01:47:15;;;;;;;6.78;4.50;;;8.20;67.40;;;;;;5113793;28;20038;-46
2022/04/28 01:49:41;;;;;;;7.40;4.05;;;8.20;67.40;;;;;;5113943;28;20030;-46
2022/04/28 01:55:00;;;;;;;7.53;3.80;;;8.20;67.60;;;;;;5113920;28;20157;-46
2022/04/28 01:57:30;;;;;;;8.43;3.95;;;8.20;67.60;;;;;;5113381;28;20128;-45
2022/04/28 01:59:58;;;;;;;7.82;3.88;;;8.20;67.70;;;;;;5113813;28;20031;-45
2022/04/28 02:02:23;;;;;;;8.63;4.57;;;8.10;67.70;;;;;;5113787;28;20055;-46
2022/04/28 02:04:52;;;;;;;12.38;4.72;;;8.10;68.00;;;;;;5093307;28;20059;-45
2022/04/28 02:07:18;;;;;;;10.70;4.72;;;8.00;68.00;;;;;;5091779;28;20077;-46
2022/04/28 02:09:45;;;;;;;8.02;4.13;;;8.00;68.10;;;;;;5093122;28;20032;-45
2022/04/28 02:12:13;;;;;;;6.90;3.90;;;7.90;68.20;;;;;;5093284;28;20035;-45
2022/04/28 02:14:39;;;;;;;7.95;3.88;;;7.90;68.30;;;;;;5093071;28;20024;-45
2022/04/28 02:17:05;;;;;;;9.98;4.50;;;7.90;68.30;;;;;;5092769;28;20035;-45
2022/04/28 02:19:31;;;;;;;9.43;4.72;;;7.90;68.30;;;;;;5093045;28;20379;-45
2022/04/28 02:21:57;;;;;;;9.25;4.05;;;7.90;68.50;;;;;;5092785;28;20537;-45
2022/04/28 02:24:22;;;;;;;9.38;4.38;;;7.90;68.50;;;;;;5092973;28;20012;-45
2022/04/28 02:26:48;;;;;;;9.63;3.97;;;7.90;68.60;;;;;;5093045;28;20028;-45
2022/04/28 02:29:14;;;;;;;9.35;4.85;;;7.90;68.60;;;;;;5092902;28;20035;-45
2022/04/28 02:31:41;;;;;;;7.35;3.97;;;7.90;68.60;;;;;;5092891;28;20027;-46
2022/04/28 02:34:06;;;;;;;8.90;3.53;;;7.90;68.60;;;;;;5091889;28;20082;-46
2022/04/28 02:36:32;;;;;;;9.18;3.95;;;7.90;68.60;;;;;;5092716;28;20422;-46
2022/04/28 02:38:58;;;;;;;8.45;4.07;;;7.90;68.70;;;;;;5092636;28;20472;-46
2022/04/28 02:41:23;;;;;;;9.48;3.55;;;7.90;68.70;;;;;;5092706;28;20434;-46
2022/04/28 02:43:50;;;;;;;10.02;3.92;;;7.90;68.70;;;;;;5092790;28;20023;-46
2022/04/28 02:46:16;;;;;;;7.75;3.95;;;7.80;68.70;;;;;;5093068;28;20083;-46
2022/04/28 02:48:42;;;;;;;9.15;4.25;;;7.80;68.70;;;;;;5092841;28;20027;-45
2022/04/28 02:51:07;;;;;;;9.43;3.88;;;7.80;68.80;;;;;;5092819;28;20470;-45
2022/04/28 02:53:34;;;;;;;9.18;4.00;;;7.70;68.80;;;;;;5092687;28;20074;-46
2022/04/28 02:55:59;;;;;;;7.65;4.15;;;7.70;69.10;;;;;;5092403;28;20111;-46
2022/04/28 02:58:25;;;;;;;8.07;4.03;;;7.70;69.20;;;;;;5092678;28;20028;-45
2022/04/28 03:00:50;;;;;;;7.75;3.47;;;7.60;69.30;;;;;;5092893;28;20036;-46
2022/04/28 03:03:16;;;;;;;9.80;4.00;;;7.60;69.40;;;;;;5092740;28;20032;-48
2022/04/28 03:11:10;;;;;;;4.00;3.30;;;7.60;69.30;;;;;;5092484;28;20039;-46
2022/04/28 03:13:36;;;;;;;6.30;3.17;;;7.60;69.40;;;;;;5091105;28;20020;-45
2022/04/28 03:16:02;;;;;;;7.38;3.53;;;7.60;69.40;;;;;;5092389;28;20021;-44
2022/04/28 03:18:28;;;;;;;7.78;3.53;;;7.60;69.40;;;;;;5092444;28;20051;-46
2022/04/28 03:20:54;;;;;;;6.93;3.28;;;7.60;69.40;;;;;;5092275;28;20085;-46
2022/04/28 03:23:21;;;;;;;10.75;4.40;;;7.60;69.40;;;;;;5092622;28;20365;-46
2022/04/28 03:25:48;;;;;;;7.50;3.25;;;7.60;69.40;;;;;;5092346;28;20024;-46
2022/04/28 03:28:13;;;;;;;8.38;3.60;;;7.60;69.40;;;;;;5092309;28;20115;-46
2022/04/28 03:30:39;;;;;;;7.25;3.42;;;7.60;69.50;;;;;;5092802;28;20068;-45
2022/04/28 03:33:05;;;;;;;6.65;3.30;;;7.60;69.50;;;;;;5092345;28;20448;-46
2022/04/28 03:35:30;;;;;;;8.52;3.47;;;7.60;69.50;;;;;;5092446;28;20039;-45
2022/04/28 03:37:58;;;;;;;8.70;3.42;;;7.60;69.50;;;;;;5092464;28;20537;-45
2022/04/28 03:40:24;;;;;;;9.15;3.60;;;7.50;69.40;;;;;;5092467;28;20107;-45
2022/04/28 03:42:51;;;;;;;9.38;3.80;;;7.60;69.50;;;;;;5092301;28;20055;-45
2022/04/28 03:45:17;;;;;;;7.18;3.67;;;7.50;69.60;;;;;;5092281;28;20028;-46
2022/04/28 03:47:44;;;;;;;7.57;3.30;;;7.50;69.60;;;;;;5096132;28;20387;-46
2022/04/28 03:50:09;;;;;;;5.53;3.40;;;7.50;69.60;;;;;;5096296;28;20126;-45
2022/04/28 03:52:36;;;;;;;9.63;3.22;;;7.50;69.60;;;;;;5096273;28;20495;-44
2022/04/28 03:55:02;;;;;;;6.78;3.63;;;7.50;69.60;;;;;;5096133;28;20064;-46
2022/04/28 03:57:28;;;;;;;5.45;3.20;;;7.50;69.60;;;;;;5095573;28;20052;-46
2022/04/28 03:59:56;;;;;;;9.27;3.60;;;7.50;69.60;;;;;;5095497;28;20472;-30
2022/04/28 04:02:22;;;;;;;8.68;3.33;;;7.50;69.60;;;;;;5095774;28;20031;-32
2022/04/28 04:04:47;;;;;;;8.93;3.33;;;7.50;69.60;;;;;;5094245;28;20378;-31
2022/04/28 04:07:13;;;;;;;7.45;3.38;;;7.50;69.60;;;;;;5095800;28;20024;-29
2022/04/28 04:09:39;;;;;;;9.32;3.47;;;7.50;69.60;;;;;;5095779;28;20119;-29
2022/04/28 04:12:05;;;;;;;10.73;3.75;;;7.40;69.50;;;;;;5095438;28;20200;-29
2022/04/28 04:14:32;;;;;;;9.73;3.50;;;7.40;69.50;;;;;;5095815;28;20024;-29
2022/04/28 04:17:01;;;;;;;6.82;3.47;;;7.40;69.60;;;;;;5095680;28;20038;-29
2022/04/28 04:19:26;;;;;;;8.82;3.40;;;7.40;69.60;;;;;;5095375;28;20036;-28
2022/04/28 04:21:52;;;;;;;7.28;3.08;;;7.40;69.60;;;;;;5095181;28;20024;-28
2022/04/28 04:24:17;;;;;;;7.90;3.45;;;7.40;69.70;;;;;;5095377;28;20472;-28
2022/04/28 04:26:43;;;;;;;7.78;3.40;;;7.40;69.70;;;;;;5095219;28;20024;-28
2022/04/28 04:29:08;;;;;;;8.18;3.80;;;7.40;69.80;;;;;;5094936;28;20170;-31
2022/04/28 04:34:18;;;;;;;6.25;3.40;;;7.40;69.90;;;;;;5094990;28;20075;-30
2022/04/28 04:36:44;;;;;;;6.72;3.67;;;7.40;70.00;;;;;;5094885;28;20055;-33
2022/04/28 04:39:09;;;;;;;6.80;3.50;;;7.40;70.20;;;;;;5094620;28;20472;-29
2022/04/28 04:41:35;;;;;;;9.65;4.30;;;7.30;70.30;;;;;;5094740;28;20399;-33
2022/04/28 04:44:00;;;;;;;7.50;4.22;;;7.30;70.50;;;;;;5094960;28;20039;-29
2022/04/28 04:46:26;;;;;;;7.13;4.13;;;7.30;70.50;;;;;;5095255;28;20099;-31
2022/04/28 04:48:51;;;;;;;8.65;4.13;;;7.30;70.70;;;;;;5094628;28;20547;-28
2022/04/28 04:51:17;;;;;;;11.50;3.78;;;7.30;70.80;;;;;;5094531;28;20095;-28
2022/04/28 04:53:43;;;;;;;8.40;3.42;;;7.30;70.80;;;;;;5094982;28;20382;-28
2022/04/28 04:56:08;;;;;;;9.60;3.70;;;7.30;71.50;;;;;;5094316;28;20401;-28
2022/04/28 04:58:34;;;;;;;7.22;3.47;;;7.30;70.80;;;;;;5093803;28;20024;-29
2022/04/28 05:01:00;;;;;;;6.95;3.47;;;7.40;70.90;;;;;;5094368;28;20020;-27
2022/04/28 05:03:26;;;;;;;8.77;3.67;;;7.40;70.90;;;;;;5094533;28;20028;-31
2022/04/28 05:05:53;;;;;;;12.45;4.32;;;7.40;70.90;;;;;;5092958;28;20020;-28
2022/04/28 05:08:18;;;;;;;9.80;4.10;;;7.40;71.10;;;;;;5094663;28;20102;-28
2022/04/28 05:10:44;;;;;;;12.15;3.72;;;7.40;71.10;;;;;;5094419;28;20028;-29
2022/04/28 05:13:09;;;;;;;9.02;3.40;;;7.40;71.10;;;;;;5094112;28;20383;-39
2022/04/28 05:15:35;;;;;;;7.03;3.47;;;7.40;71.10;;;;;;5094156;28;20364;-29
2022/04/28 05:18:00;;;;;;;7.85;3.78;;;7.40;71.00;;;;;;5094114;28;20154;-30
2022/04/28 05:20:26;;;;;;;12.70;3.70;;;7.40;70.90;;;;;;5093987;28;20125;-34
2022/04/28 05:22:52;;;;;;;9.00;3.30;;;7.50;70.90;;;;;;5093970;28;20502;-28
2022/04/28 05:25:17;;;;;;;8.40;3.60;;;7.50;70.90;;;;;;5092640;28;20023;-29
2022/04/28 05:27:43;;;;;;;11.73;3.83;;;7.50;70.90;;;;;;5093891;28;20432;-28
2022/04/28 05:30:09;;;;;;;9.20;3.22;;;7.50;70.90;;;;;;5093823;28;20439;-29
2022/04/28 05:32:35;;;;;;;9.90;3.83;;;7.50;70.80;;;;;;5092441;28;20134;-28
2022/04/28 05:35:00;;;;;;;9.85;4.18;;;7.60;70.80;;;;;;5093722;28;20100;-28
2022/04/28 05:37:26;;;;;;;8.82;3.60;;;7.60;70.70;;;;;;5093829;28;20056;-31
2022/04/28 05:39:52;;;;;;;7.90;3.75;;;7.60;70.70;;;;;;5093537;28;20039;-30
2022/04/28 05:42:18;;;;;;;4.75;3.15;;;7.70;70.60;;;;;;5093607;28;20048;-29
2022/04/28 05:47:28;;;;;;;7.07;3.25;;;7.80;70.50;;;;;;5094070;28;20109;-29
2022/04/28 05:49:54;;;;;;;6.20;3.50;;;7.80;70.30;;;;;;5093472;28;20497;-31
2022/04/28 05:52:19;;;;;;;9.43;3.75;;;7.80;70.20;;;;;;5093382;28;20415;-28
2022/04/28 05:54:45;;;;;;;8.30;2.97;;;7.90;70.10;;;;;;5093697;28;20051;-29
2022/04/28 05:57:11;;;;;;;6.30;3.20;;;7.90;70.00;;;;;;5091958;28;20047;-30
2022/04/28 05:59:37;;;;;;;6.25;3.25;;;8.00;69.90;;;;;;5093512;28;20467;-29
2022/04/28 06:02:03;;;;;;;8.60;3.20;;;8.00;69.80;;;;;;5093187;28;20016;-29
2022/04/28 06:04:29;;;;;;;7.10;3.00;;;8.10;69.70;;;;;;5093249;28;20103;-32
2022/04/28 06:06:54;;;;;;;4.97;2.75;;;8.10;69.60;;;;;;5093458;28;20016;-32
2022/04/28 06:09:20;;;;;;;7.63;2.80;;;8.10;69.40;;;;;;5093131;28;20112;-29
2022/04/28 06:11:46;;;;;;;6.47;3.17;;;8.20;69.40;;;;;;5093195;28;20024;-46
2022/04/28 06:14:11;;;;;;;4.90;2.60;;;8.20;69.20;;;;;;5093064;28;20024;-46
2022/04/28 06:16:37;;;;;;;6.90;2.80;;;8.30;69.10;;;;;;5093062;28;20048;-46
2022/04/28 06:19:02;;;;;;;6.75;2.95;;;8.30;69.00;;;;;;5092934;28;20467;-45
2022/04/28 06:21:28;;;;;;;5.57;2.85;;;8.30;68.80;;;;;;5092941;28;20468;-46
2022/04/28 06:23:54;;;;;;;7.85;3.40;;;8.40;68.80;;;;;;5091656;28;20391;-47
2022/04/28 06:26:19;;;;;;;6.35;2.90;;;8.40;68.70;;;;;;5093006;28;20149;-46
2022/04/28 06:28:45;;;;;;;10.05;3.35;;;8.40;68.60;;;;;;5092917;28;20024;-47
2022/04/28 06:31:10;;;;;;;8.48;3.17;;;8.50;68.60;;;;;;5093090;28;20024;-47
2022/04/28 06:33:40;;;;;;;7.00;3.38;;;8.50;68.50;;;;;;5092864;28;20472;-46
2022/04/28 06:36:06;;;;;;;7.85;2.80;;;8.60;68.30;;;;;;5092680;28;20017;-46
2022/04/28 06:38:31;;;;;;;7.47;2.63;;;8.60;68.20;;;;;;5092738;28;20069;-46
2022/04/28 06:40:57;;;;;;;5.60;2.72;;;8.70;68.10;;;;;;5093006;28;20028;-46
2022/04/28 06:43:23;;;;;;;6.95;2.67;;;8.70;68.00;;;;;;5092912;28;20440;-46
2022/04/28 06:48:33;;;;;;;5.00;2.53;;;8.80;67.50;;;;;;5093178;28;20031;-46
2022/04/28 06:50:58;;;;;;;8.32;2.78;;;8.80;67.20;;;;;;5092808;28;20032;-46
2022/04/28 06:53:24;;;;;;;6.78;2.53;;;8.90;67.20;;;;;;5092679;28;20432;-46
2022/04/28 06:55:49;;;;;;;7.80;2.60;;;8.90;67.10;;;;;;5092526;28;20048;-46
2022/04/28 06:58:15;;;;;;;7.53;2.75;;;8.90;67.00;;;;;;5092564;28;20024;-46
2022/04/28 07:00:41;;;;;;;5.40;2.50;;;9.00;66.90;;;;;;5091251;28;20434;-46
2022/04/28 07:03:06;;;;;;;6.18;2.40;;;9.00;66.90;;;;;;5092904;28;20471;-46
2022/04/28 07:05:33;;;;;;;6.63;2.60;;;9.10;66.80;;;;;;5092565;28;20043;-46
2022/04/28 07:07:58;;;;;;;9.63;2.92;;;9.10;66.50;;;;;;5092673;28;20108;-45
2022/04/28 07:10:24;;;;;;;6.20;2.70;;;9.10;66.30;;;;;;5092727;28;20027;-45
2022/04/28 07:12:50;;;;;;;7.43;2.60;;;9.20;66.30;;;;;;5092973;28;20027;-46
2022/04/28 07:15:16;;;;;;;6.55;2.28;;;9.20;66.20;;;;;;5092352;28;20032;-46
2022/04/28 07:17:41;;;;;;;6.97;2.60;;;9.30;66.20;;;;;;5092538;28;20035;-47
2022/04/28 07:20:08;;;;;;;9.10;2.88;;;9.30;66.00;;;;;;5092837;28;20035;-46
2022/04/28 07:22:33;;;;;;;5.07;2.22;;;9.40;65.80;;;;;;5096295;28;20036;-46
2022/04/28 07:24:59;;;;;;;7.00;2.13;;;9.40;65.80;;;;;;5096213;28;20069;-47
2022/04/28 07:27:25;;;;;;;6.78;2.30;;;9.50;65.70;;;;;;5096088;28;20024;-46
2022/04/28 07:29:50;;;;;;;6.18;2.33;;;9.50;65.60;;;;;;5096208;28;20032;-46
2022/04/28 07:32:16;;;;;;;7.05;2.60;;;9.60;65.40;;;;;;5096039;28;20052;-46
2022/04/28 07:34:42;;;;;;;8.25;2.55;;;9.70;65.20;;;;;;5095969;28;20035;-46
2022/04/28 07:37:07;;;;;;;6.03;2.28;;;9.70;64.80;;;;;;5096119;28;20063;-46
2022/04/28 07:39:33;;;;;;;4.68;2.25;;;9.70;64.80;;;;;;5094449;28;20183;-46
2022/04/28 07:41:59;;;;;;;5.15;2.40;;;9.80;64.70;;;;;;5095743;28;20417;-46
2022/04/28 07:44:25;;;;;;;5.85;2.65;;;9.90;64.60;;;;;;5096042;28;20027;-46
2022/04/28 07:46:50;;;;;;;4.97;2.55;;;9.90;64.60;;;;;;5095968;28;20016;-46
2022/04/28 07:49:16;;;;;;;6.47;2.40;;;10.00;64.60;;;;;;5095823;28;20035;-46
2022/04/28 07:51:41;;;;;;;8.02;2.78;;;10.00;64.50;;;;;;5095871;28;20027;-46
2022/04/28 07:54:07;;;;;;;7.22;2.38;;;10.10;64.50;;;;;;5095708;28;20125;-46
2022/04/28 07:56:33;;;;;;;7.28;2.70;;;10.10;63.90;;;;;;5095743;28;20074;-46
2022/04/28 07:58:59;;;;;;;7.30;2.53;;;10.10;64.00;;;;;;5095738;28;20020;-46
2022/04/28 08:01:24;;;;;;;5.30;2.95;;;10.20;63.80;;;;;;5095702;28;20034;-47
2022/04/28 08:03:50;;;;;;;8.23;2.90;;;10.20;63.60;;;;;;5095655;28;20099;-46
2022/04/28 08:06:16;;;;;;;8.40;2.90;;;10.20;63.50;;;;;;5095536;28;20577;-46
2022/04/28 08:08:42;;;;;;;5.72;2.50;;;10.30;63.40;;;;;;5095355;28;20024;-46
2022/04/28 08:11:08;;;;;;;5.85;2.50;;;10.30;63.40;;;;;;5095511;28;20081;-46
2022/04/28 08:13:34;;;;;;;5.45;2.17;;;10.40;63.40;;;;;;5095733;28;20016;-46
2022/04/28 08:16:01;;;;;;;8.95;3.22;;;10.50;63.40;;;;;;5095264;28;20393;-47
2022/04/28 08:18:29;;;;;;;7.55;3.10;;;10.60;62.80;;;;;;5095275;28;20505;-46
2022/04/28 08:20:54;;;;;;;7.90;3.53;;;10.60;62.70;;;;;;5095220;28;20097;-46
2022/04/28 08:23:20;;;;;;;8.13;3.03;;;10.70;62.70;;;;;;5095425;28;20024;-47
2022/04/28 08:25:46;;;;;;;8.65;3.45;;;10.70;62.60;;;;;;5095157;28;20150;-46
2022/04/28 08:28:12;;;;;;;8.57;3.05;;;10.80;62.40;;;;;;5095131;28;20016;-46
2022/04/28 08:30:37;;;;;;;8.55;2.50;;;10.80;62.50;;;;;;5095256;28;20051;-45
2022/04/28 08:33:04;;;;;;;5.80;2.75;;;10.90;62.40;;;;;;5093649;28;20024;-46
2022/04/28 08:35:30;;;;;;;7.63;2.85;;;10.90;62.10;;;;;;5095281;28;20028;-46
2022/04/28 08:37:56;;;;;;;7.13;2.80;;;11.00;62.20;;;;;;5095008;28;20031;-46
2022/04/28 08:40:22;;;;;;;8.85;3.10;;;11.10;62.00;;;;;;5094893;28;20479;-46
2022/04/28 08:42:48;;;;;;;7.15;2.90;;;11.20;61.70;;;;;;5095024;28;20024;-46
2022/04/28 08:45:20;;;;;;;7.50;3.45;;;11.30;61.60;;;;;;5094886;28;20427;-46
2022/04/28 08:47:47;;;;;;;6.22;3.17;;;11.40;61.30;;;;;;5095161;28;20455;-46
2022/04/28 08:50:14;;;;;;;8.98;3.85;;;11.40;61.20;;;;;;5094700;28;20047;-46
2022/04/28 08:52:40;;;;;;;9.73;3.55;;;11.40;60.80;;;;;;5093287;28;20036;-46
2022/04/28 08:55:06;;;;;;;5.40;3.10;;;11.40;60.80;;;;;;5094414;28;20024;-46
2022/04/28 08:57:34;;;;;;;8.45;3.30;;;11.50;60.30;;;;;;5094245;28;20059;-46
2022/04/28 09:00:00;;;;;;;7.53;3.65;;;11.50;60.20;;;;;;5094571;28;20059;-46
2022/04/28 09:02:29;;;;;;;6.25;3.38;;;11.50;60.30;;;;;;5094866;28;20056;-46
2022/04/28 09:05:07;;;;;;;6.10;2.90;;;11.50;60.40;;;;;;5094290;28;20028;-46
2022/04/28 09:07:43;;;;;;;8.13;3.25;;;11.50;60.40;;;;;;5094408;28;20021;-46
2022/04/28 09:10:32;;;;;;;5.35;2.85;;;11.50;60.20;;;;;;5094560;28;20414;-29
2022/04/28 09:16:00;;;;;;;6.43;2.80;;;11.60;59.90;;;;;;5032221;28;20083;-28
2022/04/28 09:18:26;;;;;;;6.35;3.50;;;11.70;59.90;;;;;;5081221;28;20040;-30
2022/04/28 09:20:52;;;;;;;8.13;3.55;;;11.80;59.60;;;;;;5094322;28;20081;-29
2022/04/28 09:23:18;;;;;;;8.40;2.83;;;11.80;59.20;;;;;;5094163;28;20099;-31
2022/04/28 09:25:45;;;;;;;8.25;2.92;;;11.90;59.50;;;;;;5094081;28;20020;-33
2022/04/28 09:28:11;;;;;;;6.70;2.65;;;11.90;59.40;;;;;;5094018;28;20028;-29
2022/04/28 09:30:42;;;;;;;6.40;3.00;;;12.00;59.30;;;;;;5093958;28;20390;-29
2022/04/28 09:33:12;;;;;;;7.00;3.00;;;12.00;59.10;;;;;;5092595;28;20027;-30
2022/04/28 09:35:52;;;;;;;9.95;3.15;;;12.00;59.10;;;;;;5094072;28;20589;-29
2022/04/28 09:38:19;;;;;;;6.10;3.10;;;12.10;58.80;;;;;;5093831;28;20032;-45
2022/04/28 09:43:31;;;;;;;7.28;2.70;;;12.20;58.90;;;;;;5093622;28;20089;-46
2022/04/28 09:45:57;;;;;;;6.85;3.00;;;12.30;58.60;;;;;;5093795;28;20080;-46
2022/04/28 09:48:25;;;;;;;5.45;2.90;;;12.30;58.50;;;;;;5093774;28;20504;-46
2022/04/28 09:50:51;;;;;;;7.32;2.40;;;12.40;58.50;;;;;;5093703;28;20464;-45
2022/04/28 09:53:19;;;;;;;4.00;2.20;;;12.50;59.00;;;;;;5093730;28;20085;-46
2022/04/28 09:55:45;;;;;;;6.28;2.55;;;12.60;58.40;;;;;;5093282;28;20141;-45
2022/04/28 09:58:12;;;;;;;8.65;2.90;;;12.70;57.90;;;;;;5093284;28;20030;-46
2022/04/28 10:00:38;;;;;;;5.75;2.60;;;12.80;57.80;;;;;;5092900;28;20016;-46
2022/04/28 10:03:03;;;;;;;9.25;2.80;;;12.80;57.80;;;;;;5093054;28;20498;-45
2022/04/28 10:05:29;;;;;;;6.55;3.00;;;12.90;57.80;;;;;;5092885;28;20047;-46
2022/04/28 10:07:55;;;;;;;6.15;3.25;;;13.00;56.90;;;;;;5093215;28;20046;-45
2022/04/28 10:10:21;;;;;;;6.30;3.13;;;13.00;57.00;;;;;;5092866;28;20440;-45
2022/04/28 10:12:48;;;;;;;4.90;3.13;;;13.00;56.90;;;;;;5092628;28;20078;-46
2022/04/28 10:15:15;;;;;;;4.75;2.60;;;13.00;56.80;;;;;;5092948;28;20121;-45
2022/04/28 10:17:57;;;;;;;6.93;3.20;;;13.10;56.60;;;;;;5092600;28;20024;-45
2022/04/28 10:20:31;;;;;;;4.75;2.92;;;13.10;56.30;;;;;;5092964;28;20032;-46
2022/04/28 10:23:01;;;;;;;9.55;3.30;;;13.10;56.30;;;;;;5092563;28;20043;-45
2022/04/28 10:34:16;;;;;;;6.20;2.72;;;13.30;55.70;;;;;;5092591;28;20089;-30
2022/04/28 10:36:58;;;;;;;7.63;3.38;;;13.40;55.40;;;;;;5092118;28;20032;-35
2022/04/28 10:39:45;;;;;;;6.10;2.92;;;13.50;55.30;;;;;;5092142;28;20024;-28
2022/04/28 10:42:15;;;;;;;7.65;3.33;;;13.60;55.80;;;;;;5092239;28;20034;-31
2022/04/28 10:44:54;;;;;;;7.05;3.38;;;13.70;54.80;;;;;;5092335;28;20020;-29
2022/04/28 10:47:36;;;;;;;7.05;2.80;;;13.70;54.70;;;;;;5092449;28;20363;-30
2022/04/28 10:50:03;;;;;;;5.07;2.72;;;13.80;54.90;;;;;;5092153;28;20031;-31
2022/04/28 10:52:29;;;;;;;6.93;2.97;;;13.90;54.90;;;;;;5092554;28;20348;-29
2022/04/28 10:55:01;;;;;;;5.07;3.00;;;14.00;54.70;;;;;;5092881;28;20024;-31
2022/04/28 10:57:32;;;;;;;5.88;2.88;;;14.00;54.30;;;;;;5096650;28;20048;-31
2022/04/28 11:00:00;;;;;;;8.55;3.03;;;14.10;54.70;;;;;;5096729;28;20027;-34
2022/04/28 11:02:26;;;;;;;6.95;2.60;;;14.20;54.40;;;;;;5096584;28;20128;-34
2022/04/28 11:04:54;;;;;;;7.22;2.80;;;14.30;54.30;;;;;;5096243;28;20161;-30
2022/04/28 11:07:24;;;;;;;4.82;2.90;;;14.40;54.00;;;;;;5096366;28;20052;-29
2022/04/28 11:10:05;;;;;;;5.80;2.55;;;14.40;53.60;;;;;;5095891;28;20035;-32
2022/04/28 11:12:38;;;;;;;3.78;2.30;;;14.50;53.70;;;;;;5096159;28;20024;-30
2022/04/28 11:15:08;;;;;;;6.43;3.10;;;14.50;53.60;;;;;;5094508;28;20031;-28
2022/04/28 11:17:36;;;;;;;4.88;2.67;;;14.60;53.10;;;;;;5096261;28;20028;-28
2022/04/28 11:20:12;;;;;;;5.75;2.55;;;14.60;53.20;;;;;;5095833;28;20146;-28
2022/04/28 11:22:46;;;;;;;4.70;2.53;;;14.70;53.30;;;;;;5096104;28;20047;-29
2022/04/28 11:25:18;;;;;;;5.57;2.72;;;14.80;53.20;;;;;;5094325;28;20476;-30
2022/04/28 11:27:49;;;;;;;6.95;3.33;;;14.80;53.00;;;;;;5095669;28;20020;-30
2022/04/28 11:30:20;;;;;;;3.78;2.45;;;14.80;52.40;;;;;;5095555;28;20103;-29
2022/04/28 11:32:49;;;;;;;4.03;2.78;;;14.80;52.80;;;;;;5095537;28;20028;-28
2022/04/28 11:35:15;;;;;;;4.43;2.72;;;14.90;53.10;;;;;;5095434;28;20027;-33
2022/04/28 11:37:40;;;;;;;6.85;2.83;;;15.00;52.90;;;;;;5095730;28;20028;-29
2022/04/28 11:40:11;;;;;;;4.70;2.85;;;15.10;52.70;;;;;;5095665;28;20024;-30
2022/04/28 11:42:37;;;;;;;8.27;3.10;;;15.20;52.70;;;;;;5095462;28;20055;-29
2022/04/28 11:45:03;;;;;;;7.30;2.90;;;15.20;52.40;;;;;;5095488;28;20027;-31
2022/04/28 11:47:30;;;;;;;6.85;3.30;;;15.30;52.10;;;;;;5094444;28;20056;-29
2022/04/28 11:49:58;;;;;;;4.20;2.42;;;15.30;52.00;;;;;;5095993;28;20024;-30
2022/04/28 11:52:26;;;;;;;5.80;2.53;;;15.40;52.10;;;;;;5095485;28;20028;-29
2022/04/28 11:54:57;;;;;;;4.05;3.22;;;15.50;52.10;;;;;;5095741;28;20027;-34
2022/04/28 11:57:23;;;;;;;7.75;3.47;;;15.60;51.40;;;;;;5095358;28;20131;-32
2022/04/28 11:59:50;;;;;;;5.28;2.80;;;15.60;51.20;;;;;;5095624;28;20078;-31
2022/04/28 12:02:28;;;;;;;3.88;2.83;;;15.60;51.30;;;;;;5095833;28;20494;-33
2022/04/28 12:04:57;;;;;;;4.45;3.25;;;15.60;50.80;;;;;;5094948;28;20024;-31
2022/04/28 12:07:27;;;;;;;5.43;3.00;;;15.60;50.80;;;;;;5094647;28;20032;-36
2022/04/28 12:15:25;;;;;;;4.75;2.60;;;15.80;51.10;;;;;;5095055;28;20039;-47
2022/04/28 12:21:01;;;;;;;4.50;2.70;;;16.00;51.10;;;;;;5094719;28;20185;-45
2022/04/28 12:23:31;;;;;;;5.78;2.55;;;16.20;51.00;;;;;;5093212;28;20039;-47
2022/04/28 12:26:06;;;;;;;5.53;3.08;;;16.30;50.40;;;;;;5093598;28;20437;-45
2022/04/28 12:28:40;;;;;;;4.68;2.95;;;16.30;50.70;;;;;;5094864;28;20028;-46
2022/04/28 12:31:07;;;;;;;3.35;2.55;;;16.30;49.50;;;;;;5094668;28;20364;-45
2022/04/28 12:33:34;;;;;;;3.22;2.47;;;16.30;49.20;;;;;;5094421;28;20024;-46
2022/04/28 12:36:02;;;;;;;6.15;2.47;;;16.40;49.10;;;;;;5094444;28;20534;-46
2022/04/28 12:38:28;;;;;;;5.38;2.75;;;16.40;49.10;;;;;;5094629;28;20020;-45
2022/04/28 12:40:55;;;;;;;6.22;2.97;;;16.40;48.90;;;;;;5094195;28;20365;-46
2022/04/28 12:43:38;;;;;;;7.82;2.95;;;16.50;48.70;;;;;;5094381;28;20016;-46
2022/04/28 12:46:05;;;;;;;4.90;2.70;;;16.50;48.60;;;;;;5094345;28;20483;-46
2022/04/28 12:48:35;;;;;;;5.82;3.20;;;16.60;48.80;;;;;;5094798;28;20149;-46
2022/04/28 12:51:18;;;;;;;6.25;2.78;;;16.70;48.70;;;;;;5094718;28;20383;-35
2022/04/28 12:53:47;;;;;;;4.77;2.93;;;16.80;49.50;;;;;;5092975;28;20027;-31
2022/04/28 12:56:18;;;;;;;5.38;2.80;;;16.90;48.50;;;;;;5094204;28;20047;-33
2022/04/28 12:58:53;;;;;;;3.58;2.35;;;17.00;48.70;;;;;;5094103;28;20486;-29
2022/04/28 13:01:20;;;;;;;4.13;2.40;;;17.10;48.60;;;;;;5093967;28;20023;-33
2022/04/28 13:03:55;;;;;;;2.58;2.08;;;17.20;48.50;;;;;;5094069;28;20027;-30
2022/04/28 13:06:25;;;;;;;6.65;2.00;;;17.40;48.60;;;;;;5094488;28;20461;-31
2022/04/28 13:08:54;;;;;;;4.60;2.70;;;17.50;48.50;;;;;;5094291;28;20016;-29
2022/04/28 13:11:28;;;;;;;4.65;2.97;;;17.60;48.10;;;;;;5093749;28;20020;-36
2022/04/28 13:13:55;;;;;;;5.13;2.80;;;17.60;47.10;;;;;;5093481;28;20032;-35
2022/04/28 13:16:21;;;;;;;7.07;2.90;;;17.50;47.30;;;;;;5092202;28;20444;-31
2022/04/28 13:18:48;;;;;;;4.38;2.85;;;17.60;47.40;;;;;;5093028;28;20126;-32
2022/04/28 13:21:15;;;;;;;6.22;2.70;;;17.70;47.60;;;;;;5093819;28;20036;-29
2022/04/28 13:23:41;;;;;;;5.68;2.80;;;17.80;47.80;;;;;;5093935;28;20020;-30
2022/04/28 13:26:08;;;;;;;4.50;2.70;;;17.90;47.70;;;;;;5093613;28;20046;-31
2022/04/28 13:28:34;;;;;;;5.80;2.92;;;18.00;47.50;;;;;;5093613;28;20099;-31
2022/04/28 13:30:59;;;;;;;4.95;2.92;;;18.10;47.20;;;;;;5093490;28;20024;-32
2022/04/28 13:33:25;;;;;;;4.20;2.90;;;18.10;46.30;;;;;;5093405;28;20099;-30
2022/04/28 13:35:51;;;;;;;4.78;2.53;;;18.10;46.40;;;;;;5093628;28;20020;-30